UAL442 KFLL-MYNN
Flight info
| Callsign | UAL442 |
|---|---|
| Flight time | 0h 36m |
| Altitude | 19000 |
| Route | SNAPR2 RAJAY DCT |
| Aircraft | A20N/M-V/N |
Departure
| Time | 2026-05-04 00:08 |
|---|---|
| Airport | Fort Lauderdale Hollywood International Airport (KFLL) |
Arrival
| Time | 2026-05-04 00:45 |
|---|---|
| Airport | Lynden Pindling International Airport (MYNN) |
| Time | Latitude | Longitude | Altitude | Speed | Heading |
|---|---|---|---|---|---|
| 2026-05-03 23:02 | 26.07121 | -80.14748 | 21 ft | 0 kts | 115° |
| 2026-05-03 23:03 | 26.07253 | -80.14613 | 22 ft | 0 kts | 12° |
| 2026-05-03 23:21 | 26.07247 | -80.14614 | 21 ft | 1 kts | 12° |
| 2026-05-03 23:21 | 26.07235 | -80.14618 | 21 ft | 1 kts | 29° |
| 2026-05-03 23:21 | 26.07227 | -80.14623 | 21 ft | 1 kts | 31° |
| 2026-05-03 23:21 | 26.07219 | -80.14629 | 23 ft | 1 kts | 31° |
| 2026-05-03 23:22 | 26.07203 | -80.14637 | 20 ft | 1 kts | 336° |
| 2026-05-03 23:22 | 26.07199 | -80.14636 | 21 ft | 2 kts | 315° |
| 2026-05-03 23:22 | 26.07202 | -80.14647 | 23 ft | 0 kts | 271° |
| 2026-05-03 23:27 | 26.07202 | -80.14649 | 23 ft | 0 kts | 273° |
| 2026-05-03 23:29 | 26.07202 | -80.14663 | 20 ft | 4 kts | 273° |
| 2026-05-03 23:29 | 26.07211 | -80.14721 | 21 ft | 11 kts | 280° |
| 2026-05-03 23:29 | 26.07173 | -80.14803 | 21 ft | 8 kts | 225° |
| 2026-05-03 23:30 | 26.07127 | -80.14864 | 22 ft | 12 kts | 252° |
| 2026-05-03 23:30 | 26.07165 | -80.14947 | 21 ft | 13 kts | 308° |
| 2026-05-03 23:30 | 26.07136 | -80.15031 | 22 ft | 13 kts | 228° |
| 2026-05-03 23:30 | 26.07064 | -80.15108 | 24 ft | 15 kts | 221° |
| 2026-05-03 23:31 | 26.06964 | -80.15131 | 24 ft | 16 kts | 180° |
| 2026-05-03 23:31 | 26.06841 | -80.15131 | 26 ft | 19 kts | 180° |
| 2026-05-03 23:31 | 26.06735 | -80.15131 | 25 ft | 10 kts | 180° |
| 2026-05-03 23:31 | 26.06696 | -80.15183 | 26 ft | 10 kts | 268° |
| 2026-05-03 23:32 | 26.06696 | -80.15216 | 25 ft | 0 kts | 270° |
| 2026-05-03 23:36 | 26.06696 | -80.15217 | 25 ft | 0 kts | 270° |
| 2026-05-03 23:36 | 26.06696 | -80.15229 | 25 ft | 3 kts | 271° |
| 2026-05-03 23:36 | 26.06696 | -80.15238 | 25 ft | 0 kts | 271° |
| 2026-05-03 23:39 | 26.06696 | -80.15244 | 25 ft | 2 kts | 271° |
| 2026-05-03 23:40 | 26.06696 | -80.15269 | 26 ft | 5 kts | 271° |
| 2026-05-03 23:40 | 26.06696 | -80.15275 | 26 ft | 0 kts | 271° |
| 2026-05-03 23:48 | 26.06696 | -80.15297 | 26 ft | 7 kts | 270° |
| 2026-05-03 23:48 | 26.06697 | -80.15375 | 26 ft | 12 kts | 270° |
| 2026-05-03 23:49 | 26.06698 | -80.15483 | 29 ft | 15 kts | 271° |
| 2026-05-03 23:49 | 26.06698 | -80.15518 | 28 ft | 0 kts | 270° |
| 2026-05-03 23:52 | 26.06698 | -80.15531 | 28 ft | 4 kts | 270° |
| 2026-05-03 23:52 | 26.06698 | -80.15574 | 25 ft | 5 kts | 270° |
| 2026-05-03 23:53 | 26.06698 | -80.15575 | 25 ft | 0 kts | 270° |
| 2026-05-03 23:53 | 26.06698 | -80.15590 | 25 ft | 4 kts | 270° |
| 2026-05-03 23:53 | 26.06698 | -80.15634 | 25 ft | 7 kts | 270° |
| 2026-05-03 23:53 | 26.06698 | -80.15640 | 25 ft | 0 kts | 270° |
| 2026-05-03 23:57 | 26.06698 | -80.15643 | 26 ft | 2 kts | 270° |
| 2026-05-03 23:57 | 26.06698 | -80.15676 | 24 ft | 7 kts | 270° |
| 2026-05-03 23:57 | 26.06698 | -80.15695 | 23 ft | 0 kts | 270° |
| 2026-05-04 00:00 | 26.06698 | -80.15702 | 23 ft | 2 kts | 270° |
| 2026-05-04 00:01 | 26.06699 | -80.15735 | 26 ft | 6 kts | 271° |
| 2026-05-04 00:01 | 26.06699 | -80.15749 | 22 ft | 0 kts | 271° |
| 2026-05-04 00:03 | 26.06699 | -80.15756 | 22 ft | 2 kts | 271° |
| 2026-05-04 00:03 | 26.06699 | -80.15788 | 28 ft | 5 kts | 264° |
| 2026-05-04 00:03 | 26.06680 | -80.15816 | 23 ft | 0 kts | 207° |
| 2026-05-04 00:06 | 26.06671 | -80.15821 | 21 ft | 5 kts | 206° |
| 2026-05-04 00:06 | 26.06610 | -80.15817 | 20 ft | 13 kts | 157° |
| 2026-05-04 00:06 | 26.06588 | -80.15757 | 21 ft | 0 kts | 91° |
| 2026-05-04 00:07 | 26.06587 | -80.15606 | 25 ft | 51 kts | 90° |
| 2026-05-04 00:08 | 26.06584 | -80.14957 | 21 ft | 114 kts | 90° |
| 2026-05-04 00:08 | 26.06579 | -80.13898 | 119 ft | 150 kts | 88° |
| 2026-05-04 00:08 | 26.06578 | -80.12770 | 749 ft | 144 kts | 85° |
| 2026-05-04 00:08 | 26.06663 | -80.11681 | 1324 ft | 141 kts | 77° |
| 2026-05-04 00:09 | 26.06816 | -80.10588 | 1851 ft | 142 kts | 88° |
| 2026-05-04 00:09 | 26.06786 | -80.09422 | 2174 ft | 164 kts | 90° |
| 2026-05-04 00:09 | 26.06798 | -80.08053 | 2512 ft | 189 kts | 87° |
| 2026-05-04 00:09 | 26.06875 | -80.06525 | 2963 ft | 206 kts | 90° |
| 2026-05-04 00:10 | 26.06865 | -80.04918 | 3576 ft | 213 kts | 91° |
| 2026-05-04 00:10 | 26.06838 | -80.03242 | 4222 ft | 220 kts | 92° |
| 2026-05-04 00:10 | 26.06790 | -80.01518 | 4889 ft | 226 kts | 93° |
| 2026-05-04 00:10 | 26.06745 | -79.99753 | 5550 ft | 230 kts | 91° |
| 2026-05-04 00:11 | 26.06742 | -79.97966 | 6242 ft | 233 kts | 90° |
| 2026-05-04 00:11 | 26.06761 | -79.96161 | 6903 ft | 234 kts | 90° |
| 2026-05-04 00:11 | 26.06797 | -79.94344 | 7563 ft | 235 kts | 90° |
| 2026-05-04 00:11 | 26.06792 | -79.92519 | 8231 ft | 236 kts | 91° |
| 2026-05-04 00:12 | 26.06809 | -79.90692 | 8912 ft | 235 kts | 90° |
| 2026-05-04 00:12 | 26.06798 | -79.88900 | 9712 ft | 228 kts | 92° |
| 2026-05-04 00:12 | 26.06770 | -79.87135 | 10343 ft | 228 kts | 91° |
| 2026-05-04 00:12 | 26.06801 | -79.85322 | 10756 ft | 245 kts | 87° |
| 2026-05-04 00:13 | 26.06937 | -79.83349 | 11116 ft | 266 kts | 93° |
| 2026-05-04 00:13 | 26.06719 | -79.81269 | 11565 ft | 283 kts | 102° |
| 2026-05-04 00:13 | 26.06404 | -79.79083 | 11996 ft | 297 kts | 101° |
| 2026-05-04 00:13 | 26.05971 | -79.76762 | 12255 ft | 317 kts | 107° |
| 2026-05-04 00:14 | 26.05410 | -79.74308 | 12467 ft | 339 kts | 106° |
| 2026-05-04 00:14 | 26.04859 | -79.71664 | 12679 ft | 361 kts | 104° |
| 2026-05-04 00:14 | 26.04349 | -79.68850 | 12966 ft | 377 kts | 103° |
| 2026-05-04 00:14 | 26.03875 | -79.65956 | 13615 ft | 382 kts | 102° |
| 2026-05-04 00:15 | 26.03295 | -79.63065 | 14238 ft | 385 kts | 107° |
| 2026-05-04 00:15 | 26.02615 | -79.60172 | 14810 ft | 389 kts | 107° |
| 2026-05-04 00:15 | 26.01928 | -79.57235 | 15394 ft | 393 kts | 107° |
| 2026-05-04 00:15 | 26.01234 | -79.54267 | 15971 ft | 398 kts | 107° |
| 2026-05-04 00:16 | 26.00534 | -79.51284 | 16528 ft | 402 kts | 108° |
| 2026-05-04 00:16 | 25.99824 | -79.48256 | 17084 ft | 406 kts | 108° |
| 2026-05-04 00:16 | 25.99105 | -79.45198 | 17637 ft | 410 kts | 108° |
| 2026-05-04 00:16 | 25.98390 | -79.42161 | 18162 ft | 414 kts | 108° |
| 2026-05-04 00:17 | 25.97649 | -79.39042 | 18640 ft | 418 kts | 109° |
| 2026-05-04 00:17 | 25.96681 | -79.35985 | 18930 ft | 419 kts | 115° |
| 2026-05-04 00:17 | 25.95623 | -79.32959 | 19013 ft | 420 kts | 115° |
| 2026-05-04 00:17 | 25.94569 | -79.29939 | 19028 ft | 420 kts | 115° |
| 2026-05-04 00:18 | 25.93513 | -79.26911 | 19033 ft | 419 kts | 115° |
| 2026-05-04 00:18 | 25.92459 | -79.23887 | 19031 ft | 419 kts | 115° |
| 2026-05-04 00:18 | 25.91404 | -79.20858 | 19032 ft | 420 kts | 115° |
| 2026-05-04 00:18 | 25.90350 | -79.17834 | 19030 ft | 420 kts | 115° |
| 2026-05-04 00:19 | 25.89295 | -79.14810 | 19033 ft | 420 kts | 115° |
| 2026-05-04 00:19 | 25.88253 | -79.11827 | 19032 ft | 420 kts | 115° |
| 2026-05-04 00:19 | 25.87184 | -79.08768 | 19035 ft | 419 kts | 115° |
| 2026-05-04 00:19 | 25.86141 | -79.05785 | 19036 ft | 419 kts | 115° |
| 2026-05-04 00:20 | 25.85068 | -79.02719 | 19029 ft | 421 kts | 115° |
| 2026-05-04 00:20 | 25.84006 | -78.99689 | 19029 ft | 421 kts | 115° |
| 2026-05-04 00:20 | 25.82959 | -78.96701 | 19027 ft | 420 kts | 115° |
| 2026-05-04 00:20 | 25.81900 | -78.93681 | 19029 ft | 420 kts | 115° |
| 2026-05-04 00:21 | 25.80838 | -78.90654 | 19030 ft | 420 kts | 115° |
| 2026-05-04 00:21 | 25.79777 | -78.87636 | 19028 ft | 420 kts | 115° |
| 2026-05-04 00:21 | 25.78714 | -78.84614 | 19032 ft | 420 kts | 115° |
| 2026-05-04 00:21 | 25.77650 | -78.81589 | 19032 ft | 420 kts | 115° |
| 2026-05-04 00:22 | 25.76587 | -78.78569 | 19032 ft | 420 kts | 115° |
| 2026-05-04 00:22 | 25.75521 | -78.75545 | 19035 ft | 420 kts | 115° |
| 2026-05-04 00:22 | 25.74414 | -78.72548 | 19031 ft | 418 kts | 120° |
| 2026-05-04 00:22 | 25.73006 | -78.69749 | 19036 ft | 414 kts | 128° |
| 2026-05-04 00:23 | 25.71385 | -78.67122 | 19031 ft | 412 kts | 129° |
| 2026-05-04 00:23 | 25.69769 | -78.64498 | 19036 ft | 412 kts | 129° |
| 2026-05-04 00:23 | 25.68152 | -78.61863 | 19032 ft | 412 kts | 129° |
| 2026-05-04 00:23 | 25.66543 | -78.59239 | 19032 ft | 412 kts | 129° |
| 2026-05-04 00:24 | 25.64953 | -78.56646 | 19032 ft | 412 kts | 129° |
| 2026-05-04 00:24 | 25.63340 | -78.54019 | 19032 ft | 412 kts | 129° |
| 2026-05-04 00:24 | 25.61726 | -78.51391 | 19032 ft | 412 kts | 129° |
| 2026-05-04 00:24 | 25.60112 | -78.48767 | 19032 ft | 412 kts | 129° |
| 2026-05-04 00:25 | 25.58471 | -78.46172 | 19033 ft | 410 kts | 133° |
| 2026-05-04 00:25 | 25.56589 | -78.43828 | 19032 ft | 405 kts | 141° |
| 2026-05-04 00:25 | 25.54490 | -78.41779 | 19031 ft | 402 kts | 145° |
| 2026-05-04 00:25 | 25.52361 | -78.39768 | 19029 ft | 402 kts | 145° |
| 2026-05-04 00:26 | 25.50237 | -78.37750 | 19030 ft | 402 kts | 145° |
| 2026-05-04 00:26 | 25.48116 | -78.35732 | 19011 ft | 402 kts | 144° |
| 2026-05-04 00:26 | 25.46001 | -78.33719 | 19029 ft | 401 kts | 144° |
| 2026-05-04 00:26 | 25.43886 | -78.31708 | 19030 ft | 401 kts | 144° |
| 2026-05-04 00:27 | 25.41764 | -78.29692 | 19029 ft | 401 kts | 144° |
| 2026-05-04 00:27 | 25.39668 | -78.27701 | 19030 ft | 401 kts | 145° |
| 2026-05-04 00:27 | 25.37549 | -78.25690 | 19029 ft | 401 kts | 145° |
| 2026-05-04 00:27 | 25.35429 | -78.23678 | 19035 ft | 401 kts | 145° |
| 2026-05-04 00:28 | 25.33311 | -78.21670 | 19035 ft | 401 kts | 145° |
| 2026-05-04 00:28 | 25.31352 | -78.19508 | 18947 ft | 405 kts | 133° |
| 2026-05-04 00:28 | 25.29888 | -78.16830 | 18487 ft | 412 kts | 116° |
| 2026-05-04 00:28 | 25.29082 | -78.13777 | 18058 ft | 414 kts | 105° |
| 2026-05-04 00:29 | 25.28489 | -78.10690 | 17553 ft | 410 kts | 105° |
| 2026-05-04 00:29 | 25.27901 | -78.07644 | 17056 ft | 407 kts | 105° |
| 2026-05-04 00:29 | 25.27328 | -78.04708 | 16584 ft | 403 kts | 105° |
| 2026-05-04 00:29 | 25.26735 | -78.01695 | 16102 ft | 399 kts | 105° |
| 2026-05-04 00:30 | 25.26144 | -77.98710 | 15619 ft | 396 kts | 105° |
| 2026-05-04 00:30 | 25.25557 | -77.95751 | 15154 ft | 392 kts | 105° |
| 2026-05-04 00:30 | 25.24978 | -77.92838 | 14558 ft | 385 kts | 105° |
| 2026-05-04 00:30 | 25.24406 | -77.89964 | 13891 ft | 381 kts | 105° |
| 2026-05-04 00:31 | 25.23839 | -77.87123 | 13171 ft | 376 kts | 104° |
| 2026-05-04 00:31 | 25.23278 | -77.84316 | 12488 ft | 371 kts | 104° |
| 2026-05-04 00:31 | 25.22725 | -77.81550 | 11801 ft | 366 kts | 104° |
| 2026-05-04 00:31 | 25.22185 | -77.78853 | 11154 ft | 362 kts | 104° |
| 2026-05-04 00:32 | 25.21647 | -77.76169 | 10646 ft | 357 kts | 104° |
| 2026-05-04 00:32 | 25.21096 | -77.73485 | 9951 ft | 359 kts | 107° |
| 2026-05-04 00:32 | 25.20018 | -77.71051 | 9294 ft | 349 kts | 130° |
| 2026-05-04 00:32 | 25.18270 | -77.69279 | 8649 ft | 338 kts | 151° |
| 2026-05-04 00:33 | 25.16109 | -77.68385 | 7933 ft | 329 kts | 174° |
| 2026-05-04 00:33 | 25.11754 | -77.69253 | 6539 ft | 318 kts | 201° |
| 2026-05-04 00:33 | 25.09677 | -77.70087 | 5840 ft | 316 kts | 201° |
| 2026-05-04 00:34 | 25.07629 | -77.70913 | 5264 ft | 310 kts | 201° |
| 2026-05-04 00:34 | 25.05583 | -77.71741 | 5067 ft | 315 kts | 201° |
| 2026-05-04 00:34 | 25.03540 | -77.72569 | 4996 ft | 306 kts | 201° |
| 2026-05-04 00:34 | 25.01741 | -77.73593 | 4986 ft | 279 kts | 222° |
| 2026-05-04 00:35 | 25.00630 | -77.75222 | 4990 ft | 258 kts | 249° |
| 2026-05-04 00:35 | 25.00357 | -77.77067 | 4988 ft | 241 kts | 270° |
| 2026-05-04 00:35 | 25.00365 | -77.78852 | 4982 ft | 225 kts | 270° |
| 2026-05-04 00:35 | 25.00474 | -77.80528 | 4976 ft | 224 kts | 287° |
| 2026-05-04 00:36 | 25.01311 | -77.81995 | 4970 ft | 228 kts | 320° |
| 2026-05-04 00:36 | 25.02722 | -77.82719 | 4982 ft | 232 kts | 352° |
| 2026-05-04 00:36 | 25.04313 | -77.82497 | 4981 ft | 235 kts | 24° |
| 2026-05-04 00:36 | 25.05651 | -77.81456 | 4979 ft | 238 kts | 41° |
| 2026-05-04 00:37 | 25.06877 | -77.80236 | 4982 ft | 237 kts | 41° |
| 2026-05-04 00:37 | 25.08095 | -77.79015 | 4985 ft | 236 kts | 41° |
| 2026-05-04 00:37 | 25.09316 | -77.77789 | 4987 ft | 239 kts | 41° |
| 2026-05-04 00:37 | 25.10547 | -77.76553 | 4981 ft | 239 kts | 41° |
| 2026-05-04 00:38 | 25.11742 | -77.75283 | 4986 ft | 240 kts | 48° |
| 2026-05-04 00:38 | 25.12793 | -77.73846 | 4984 ft | 241 kts | 51° |
| 2026-05-04 00:38 | 25.13824 | -77.72385 | 4976 ft | 242 kts | 51° |
| 2026-05-04 00:38 | 25.14846 | -77.70929 | 4886 ft | 237 kts | 51° |
| 2026-05-04 00:39 | 25.15855 | -77.69490 | 4613 ft | 236 kts | 51° |
| 2026-05-04 00:39 | 25.16845 | -77.68074 | 4293 ft | 235 kts | 51° |
| 2026-05-04 00:39 | 25.17836 | -77.66650 | 4047 ft | 231 kts | 51° |
| 2026-05-04 00:39 | 25.18809 | -77.65256 | 3997 ft | 233 kts | 51° |
| 2026-05-04 00:40 | 25.19757 | -77.63785 | 3988 ft | 236 kts | 65° |
| 2026-05-04 00:40 | 25.20062 | -77.62030 | 3998 ft | 237 kts | 97° |
| 2026-05-04 00:40 | 25.19494 | -77.60362 | 3989 ft | 232 kts | 128° |
| 2026-05-04 00:40 | 25.18827 | -77.59433 | 3987 ft | 233 kts | 131° |
| 2026-05-04 00:41 | 25.17636 | -77.58227 | 3784 ft | 232 kts | 146° |
| 2026-05-04 00:41 | 25.16322 | -77.57251 | 3629 ft | 222 kts | 152° |
| 2026-05-04 00:41 | 25.14944 | -77.56675 | 3528 ft | 203 kts | 165° |
| 2026-05-04 00:41 | 25.13709 | -77.56107 | 3464 ft | 184 kts | 150° |
| 2026-05-04 00:42 | 25.12681 | -77.55390 | 3388 ft | 163 kts | 147° |
| 2026-05-04 00:42 | 25.11799 | -77.54709 | 3216 ft | 149 kts | 145° |
| 2026-05-04 00:42 | 25.10976 | -77.54045 | 2851 ft | 149 kts | 140° |
| 2026-05-04 00:42 | 25.10243 | -77.53232 | 2504 ft | 149 kts | 133° |
| 2026-05-04 00:43 | 25.09515 | -77.52408 | 2114 ft | 151 kts | 133° |
| 2026-05-04 00:43 | 25.08774 | -77.51584 | 1738 ft | 151 kts | 133° |
| 2026-05-04 00:43 | 25.08033 | -77.50760 | 1374 ft | 151 kts | 133° |
| 2026-05-04 00:43 | 25.07289 | -77.49936 | 931 ft | 154 kts | 132° |
| 2026-05-04 00:44 | 25.06515 | -77.49074 | 400 ft | 163 kts | 132° |
| 2026-05-04 00:44 | 25.05772 | -77.48225 | 214 ft | 145 kts | 127° |
| 2026-05-04 00:44 | 25.05065 | -77.47428 | 28 ft | 147 kts | 133° |
| 2026-05-04 00:44 | 25.04460 | -77.46758 | 12 ft | 83 kts | 135° |
| 2026-05-04 00:45 | 25.04250 | -77.46525 | 11 ft | 22 kts | 134° |
| 2026-05-04 00:45 | 25.04145 | -77.46348 | 10 ft | 35 kts | 116° |
| 2026-05-04 00:45 | 25.04107 | -77.46207 | 11 ft | 14 kts | 81° |
| 2026-05-04 00:45 | 25.04176 | -77.46188 | 11 ft | 11 kts | 323° |